createdAt,value
2018-12-24T00:05:59.593Z,99.90
2018-12-24T00:12:07.514Z,99.90
2018-12-24T00:18:13.417Z,99.90
2018-12-24T00:24:18.121Z,99.90
2018-12-24T00:30:22.785Z,99.90
2018-12-24T00:36:27.533Z,99.90
2018-12-24T00:42:32.223Z,99.90
2018-12-24T00:48:36.945Z,99.90
2018-12-24T00:54:41.678Z,99.90
2018-12-24T01:00:46.327Z,99.90
2018-12-24T01:06:51.121Z,99.90
2018-12-24T01:12:55.851Z,99.90
2018-12-24T01:19:00.631Z,99.90
2018-12-24T01:25:05.371Z,99.90
2018-12-24T01:31:11.875Z,99.90
2018-12-24T01:37:16.790Z,99.90
2018-12-24T01:43:21.576Z,99.90
2018-12-24T01:49:26.390Z,99.90
2018-12-24T01:55:31.202Z,99.90
2018-12-24T02:01:35.930Z,99.90
2018-12-24T02:07:40.608Z,99.90
2018-12-24T02:13:45.291Z,99.90
2018-12-24T02:19:49.972Z,99.90
2018-12-24T02:25:54.979Z,99.90
2018-12-24T02:31:59.833Z,99.90
2018-12-24T02:38:04.592Z,99.90
2018-12-24T02:44:09.468Z,99.90
2018-12-24T02:50:14.217Z,99.90
2018-12-24T02:56:18.877Z,99.90
2018-12-24T03:02:23.580Z,99.90
2018-12-24T03:08:28.299Z,99.90
2018-12-24T03:14:33.223Z,99.90
2018-12-24T03:20:37.950Z,99.90
2018-12-24T03:26:45.484Z,99.90
2018-12-24T03:32:50.200Z,99.90
2018-12-24T03:38:55.408Z,99.90
2018-12-24T03:45:00.252Z,99.90
2018-12-24T03:51:05.029Z,99.90
2018-12-24T03:57:09.730Z,99.90
2018-12-24T04:03:14.369Z,99.90
2018-12-24T04:09:19.085Z,99.90
2018-12-24T04:15:23.692Z,99.90
2018-12-24T04:21:28.477Z,99.90
2018-12-24T04:27:41.346Z,99.90
2018-12-24T04:33:39.598Z,99.90
2018-12-24T04:39:44.398Z,99.90
2018-12-24T04:45:49.167Z,99.90
2018-12-24T04:51:54.038Z,99.90
2018-12-24T04:57:58.895Z,99.90
2018-12-24T05:04:03.592Z,99.90
2018-12-24T05:10:08.249Z,99.90
2018-12-24T05:16:13.038Z,99.90
2018-12-24T05:22:17.746Z,99.90
2018-12-24T05:28:22.500Z,99.90
2018-12-24T05:34:27.220Z,99.90
2018-12-24T05:40:31.868Z,99.90
2018-12-24T05:46:36.539Z,99.90
2018-12-24T05:52:41.276Z,99.90
2018-12-24T05:58:46.068Z,99.90
2018-12-24T06:04:53.835Z,99.90
2018-12-24T06:11:01.418Z,99.90
2018-12-24T06:17:07.461Z,99.90
2018-12-24T06:23:15.931Z,99.90
2018-12-24T06:29:22.769Z,99.90
2018-12-24T06:35:27.574Z,99.90
2018-12-24T06:41:32.348Z,99.90
2018-12-24T06:47:37.110Z,99.90
2018-12-24T06:53:41.740Z,99.90
2018-12-24T06:59:46.444Z,99.90
2018-12-24T07:05:51.086Z,99.90
2018-12-24T07:11:55.762Z,99.90
2018-12-24T07:18:01.328Z,99.90
2018-12-24T07:24:06.026Z,99.90
2018-12-24T07:30:10.758Z,99.90
2018-12-24T07:36:15.486Z,99.90
2018-12-24T07:42:20.180Z,99.90
2018-12-24T07:48:25.068Z,99.90
2018-12-24T07:54:29.887Z,99.90
2018-12-24T08:00:34.669Z,99.90
2018-12-24T08:06:39.334Z,99.90
2018-12-24T08:12:44.135Z,99.90
2018-12-24T08:18:48.883Z,99.90
2018-12-24T08:24:53.571Z,99.90
2018-12-24T08:30:58.420Z,99.90
2018-12-24T08:37:03.153Z,99.90
2018-12-24T08:43:07.845Z,99.90
2018-12-24T08:49:12.478Z,99.90
2018-12-24T08:55:17.200Z,99.90
2018-12-24T09:01:22.049Z,99.90
2018-12-24T09:07:26.751Z,99.90
2018-12-24T09:13:31.545Z,99.90
2018-12-24T09:19:36.159Z,99.90
2018-12-24T09:25:40.825Z,99.90
2018-12-24T09:31:45.495Z,99.90
2018-12-24T09:37:50.160Z,99.90
2018-12-24T09:43:54.898Z,99.90
2018-12-24T09:49:59.742Z,99.90
2018-12-24T09:56:04.365Z,99.90
2018-12-24T10:02:09.147Z,99.90
2018-12-24T10:08:17.089Z,99.90
2018-12-24T10:14:21.710Z,99.90
2018-12-24T10:20:26.385Z,99.90
2018-12-24T10:26:30.989Z,99.90
2018-12-24T10:32:35.681Z,99.90
2018-12-24T10:38:40.342Z,99.90
2018-12-24T10:44:45.051Z,99.90
2018-12-24T10:50:49.874Z,99.90
2018-12-24T10:56:54.675Z,99.90
2018-12-24T11:02:59.397Z,99.90
2018-12-24T11:09:04.939Z,99.90
2018-12-24T11:15:11.502Z,99.90
2018-12-24T11:21:16.085Z,99.90
2018-12-24T11:27:20.721Z,99.90
2018-12-24T11:33:25.324Z,99.90
2018-12-24T11:39:30.006Z,99.90
2018-12-24T11:45:36.038Z,99.90
2018-12-24T11:51:40.886Z,99.90
2018-12-24T11:57:47.351Z,99.90
2018-12-24T12:03:51.912Z,99.90
2018-12-24T12:09:56.652Z,99.90
2018-12-24T12:16:01.298Z,99.90
2018-12-24T12:22:06.060Z,98.90
2018-12-24T12:28:10.776Z,99.90
2018-12-24T12:34:15.404Z,99.90
2018-12-24T12:40:20.058Z,99.90
2018-12-24T12:46:24.780Z,99.10
2018-12-24T12:52:29.396Z,99.00
2018-12-24T12:58:34.035Z,98.80
2018-12-24T13:04:38.673Z,98.90
2018-12-24T13:10:43.459Z,98.70
2018-12-24T13:16:48.125Z,97.40
2018-12-24T13:22:53.028Z,97.90
2018-12-24T13:28:57.771Z,97.00
2018-12-24T13:35:02.488Z,98.60
2018-12-24T13:41:07.254Z,96.30
2018-12-24T13:47:14.663Z,97.00
2018-12-24T13:53:19.300Z,98.10
2018-12-24T14:00:02.252Z,98.20
2018-12-24T14:06:06.571Z,96.60
2018-12-24T14:12:10.916Z,97.10
2018-12-24T14:18:15.097Z,96.40
2018-12-24T14:24:19.316Z,96.20
2018-12-24T14:30:23.607Z,96.90
2018-12-24T14:36:27.875Z,96.20
2018-12-24T14:42:32.098Z,96.20
2018-12-24T14:48:36.447Z,97.70
2018-12-24T14:54:40.740Z,98.50
2018-12-24T15:00:45.034Z,98.00
2018-12-24T15:06:49.843Z,98.10
2018-12-24T15:12:54.029Z,97.10
2018-12-24T15:18:58.274Z,97.10
2018-12-24T15:25:02.547Z,98.00
2018-12-24T15:31:06.869Z,99.90
2018-12-24T15:37:11.058Z,99.90
2018-12-24T15:43:15.350Z,99.90
2018-12-24T15:49:19.585Z,99.90
2018-12-24T15:55:23.928Z,99.90
2018-12-24T16:01:28.137Z,99.90
2018-12-24T16:07:32.469Z,99.90
2018-12-24T16:13:36.688Z,99.90
2018-12-24T16:19:42.118Z,99.90
2018-12-24T16:25:46.428Z,99.90
2018-12-24T16:31:50.632Z,99.90
2018-12-24T16:37:54.836Z,99.90
2018-12-24T16:44:00.338Z,99.90
2018-12-24T16:50:04.821Z,99.90
2018-12-24T16:56:09.079Z,99.90
2018-12-24T17:02:13.426Z,99.90
2018-12-24T17:08:17.610Z,99.90
2018-12-24T17:14:21.855Z,99.90
2018-12-24T17:20:26.045Z,99.90
2018-12-24T17:26:30.611Z,99.90
2018-12-24T17:32:34.809Z,99.90
2018-12-24T17:38:39.100Z,99.90
2018-12-24T17:44:43.299Z,99.90
2018-12-24T17:50:47.739Z,99.90
2018-12-24T17:56:51.961Z,99.90
2018-12-24T18:02:56.245Z,99.90
2018-12-24T18:09:00.454Z,99.90
2018-12-24T18:15:04.894Z,99.90
2018-12-24T18:21:09.116Z,99.90
2018-12-24T18:27:13.311Z,99.90
2018-12-24T18:33:17.521Z,99.90
2018-12-24T18:39:21.862Z,99.90
2018-12-24T18:45:26.072Z,99.90
2018-12-24T18:51:30.396Z,99.90
2018-12-24T18:57:34.638Z,99.90
2018-12-24T19:03:38.955Z,99.90
2018-12-24T19:09:43.255Z,99.90
2018-12-24T19:15:47.586Z,99.90
2018-12-24T19:21:51.955Z,99.90
2018-12-24T19:27:56.213Z,99.90
2018-12-24T19:34:00.453Z,99.90
2018-12-24T19:40:04.694Z,99.90
2018-12-24T19:46:09.035Z,99.90
2018-12-24T19:52:13.271Z,99.90
2018-12-24T19:58:17.447Z,99.90
2018-12-24T20:04:21.755Z,99.90
2018-12-24T20:10:25.965Z,99.90
2018-12-24T20:16:30.243Z,99.90
2018-12-24T20:22:34.557Z,99.90
2018-12-24T20:28:38.895Z,99.90
2018-12-24T20:34:43.106Z,99.90
2018-12-24T20:40:47.371Z,99.90
2018-12-24T20:46:51.566Z,99.90
2018-12-24T20:52:56.082Z,99.90
2018-12-24T20:59:00.315Z,99.90
2018-12-24T21:05:04.807Z,99.90
2018-12-24T21:11:09.215Z,99.90
2018-12-24T21:17:13.407Z,99.90
2018-12-24T21:23:17.629Z,99.90
2018-12-24T21:29:21.847Z,99.90
2018-12-24T21:35:26.115Z,99.90
2018-12-24T21:41:30.315Z,99.90
2018-12-24T21:47:34.508Z,99.90
2018-12-24T21:53:38.853Z,99.90
2018-12-24T21:59:43.047Z,99.90
2018-12-24T22:05:47.368Z,99.90
2018-12-24T22:11:51.595Z,99.90
2018-12-24T22:17:55.856Z,99.90
2018-12-24T22:24:00.143Z,99.90
2018-12-24T22:30:04.545Z,99.90
2018-12-24T22:36:09.076Z,99.90
2018-12-24T22:42:13.780Z,99.90
2018-12-24T22:48:17.950Z,99.90
2018-12-24T22:54:22.536Z,99.90
2018-12-24T23:01:00.866Z,99.90
2018-12-24T23:07:05.478Z,99.90
2018-12-24T23:13:09.978Z,99.90
2018-12-24T23:19:14.290Z,99.90
2018-12-24T23:25:20.354Z,99.90
2018-12-24T23:31:24.653Z,99.90
2018-12-24T23:37:28.922Z,99.90
2018-12-24T23:43:33.214Z,99.90
2018-12-24T23:49:37.476Z,99.90
2018-12-24T23:55:41.722Z,99.90
